sensor_id;sensor_type;location;lat;lon;timestamp;pressure;altitude;pressure_sealevel;temperature;humidity
73821;BME280;62150;43.582;1.456;2023-02-22T06:57:22;100175.13;;;16.43;100.00
73821;BME280;62150;43.582;1.456;2023-02-22T06:59:50;100171.59;;;16.45;100.00
73821;BME280;62150;43.582;1.456;2023-02-22T07:02:17;100172.03;;;16.65;100.00
73821;BME280;62150;43.582;1.456;2023-02-22T07:04:45;100167.88;;;16.49;100.00
73821;BME280;62150;43.582;1.456;2023-02-22T07:07:16;100174.72;;;16.91;100.00
73821;BME280;62150;43.582;1.456;2023-02-22T07:09:45;100179.56;;;16.41;100.00
73821;BME280;62150;43.582;1.456;2023-02-22T07:12:13;100183.91;;;16.55;100.00
73821;BME280;62150;43.582;1.456;2023-02-22T07:14:42;100179.81;;;16.65;100.00
73821;BME280;62150;43.582;1.456;2023-02-22T07:17:10;100192.19;;;16.19;100.00
73821;BME280;62150;43.582;1.456;2023-02-22T07:19:37;100195.38;;;16.51;100.00
73821;BME280;62150;43.582;1.456;2023-02-22T07:22:05;100208.72;;;15.30;100.00
73821;BME280;62150;43.582;1.456;2023-02-22T07:24:32;100199.59;;;15.68;100.00
73821;BME280;62150;43.582;1.456;2023-02-22T07:27:00;100205.88;;;15.64;100.00
73821;BME280;62150;43.582;1.456;2023-02-22T07:29:28;100205.16;;;16.19;100.00
73821;BME280;62150;43.582;1.456;2023-02-22T07:31:57;100211.31;;;15.60;100.00
73821;BME280;62150;43.582;1.456;2023-02-22T07:34:25;100198.78;;;16.11;100.00
73821;BME280;62150;43.582;1.456;2023-02-22T07:36:52;100205.63;;;16.12;100.00
73821;BME280;62150;43.582;1.456;2023-02-22T07:39:20;100210.63;;;15.86;100.00
73821;BME280;62150;43.582;1.456;2023-02-22T07:41:47;100207.47;;;15.81;100.00
73821;BME280;62150;43.582;1.456;2023-02-22T07:44:15;100200.34;;;15.99;100.00
73821;BME280;62150;43.582;1.456;2023-02-22T07:46:46;100206.75;;;15.93;100.00
73821;BME280;62150;43.582;1.456;2023-02-22T07:49:17;100216.03;;;15.67;100.00
73821;BME280;62150;43.582;1.456;2023-02-22T07:51:44;100218.56;;;15.69;100.00
73821;BME280;62150;43.582;1.456;2023-02-22T07:54:12;100216.00;;;15.83;100.00
73821;BME280;62150;43.582;1.456;2023-02-22T07:56:44;100218.31;;;15.28;100.00
73821;BME280;62150;43.582;1.456;2023-02-22T07:59:12;100215.25;;;15.51;100.00
73821;BME280;62150;43.582;1.456;2023-02-22T08:01:39;100217.69;;;15.24;100.00
73821;BME280;62150;43.582;1.456;2023-02-22T08:04:07;100218.31;;;15.28;100.00
73821;BME280;62150;43.582;1.456;2023-02-22T08:06:36;100217.59;;;15.56;100.00
73821;BME280;62150;43.582;1.456;2023-02-22T08:09:04;100222.97;;;15.07;100.00
73821;BME280;62150;43.582;1.456;2023-02-22T08:11:32;100221.38;;;15.50;100.00
73821;BME280;62150;43.582;1.456;2023-02-22T08:14:00;100227.06;;;15.41;100.00
73821;BME280;62150;43.582;1.456;2023-02-22T08:16:27;100224.16;;;15.91;100.00
73821;BME280;62150;43.582;1.456;2023-02-22T08:18:55;100228.06;;;15.68;100.00
73821;BME280;62150;43.582;1.456;2023-02-22T08:21:23;100225.56;;;15.67;100.00
73821;BME280;62150;43.582;1.456;2023-02-22T08:23:52;100224.09;;;16.48;100.00
73821;BME280;62150;43.582;1.456;2023-02-22T08:26:21;100223.97;;;16.23;100.00
73821;BME280;62150;43.582;1.456;2023-02-22T08:28:50;100225.81;;;16.21;100.00
73821;BME280;62150;43.582;1.456;2023-02-22T08:31:18;100232.38;;;15.84;100.00
73821;BME280;62150;43.582;1.456;2023-02-22T08:33:47;100227.91;;;15.71;100.00
73821;BME280;62150;43.582;1.456;2023-02-22T08:36:15;100234.97;;;15.84;100.00
73821;BME280;62150;43.582;1.456;2023-02-22T08:38:43;100233.03;;;15.87;100.00
73821;BME280;62150;43.582;1.456;2023-02-22T08:41:12;100229.22;;;16.21;100.00
73821;BME280;62150;43.582;1.456;2023-02-22T08:43:40;100226.69;;;16.34;100.00
73821;BME280;62150;43.582;1.456;2023-02-22T08:46:07;100236.53;;;16.43;100.00
73821;BME280;62150;43.582;1.456;2023-02-22T08:48:35;100233.56;;;16.06;100.00
73821;BME280;62150;43.582;1.456;2023-02-22T08:51:02;100226.13;;;16.71;100.00
73821;BME280;62150;43.582;1.456;2023-02-22T08:53:30;100230.41;;;16.58;100.00
73821;BME280;62150;43.582;1.456;2023-02-22T08:55:58;100230.63;;;16.13;100.00
73821;BME280;62150;43.582;1.456;2023-02-22T08:58:27;100238.56;;;15.95;100.00
73821;BME280;62150;43.582;1.456;2023-02-22T09:00:55;100230.34;;;16.17;100.00
73821;BME280;62150;43.582;1.456;2023-02-22T09:03:23;100233.72;;;15.75;100.00
73821;BME280;62150;43.582;1.456;2023-02-22T09:05:50;100230.56;;;15.40;100.00
73821;BME280;62150;43.582;1.456;2023-02-22T09:08:18;100235.69;;;15.26;100.00
73821;BME280;62150;43.582;1.456;2023-02-22T09:10:46;100238.84;;;15.01;100.00
73821;BME280;62150;43.582;1.456;2023-02-22T09:13:13;100230.81;;;15.05;100.00
73821;BME280;62150;43.582;1.456;2023-02-22T09:15:42;100235.19;;;15.65;100.00
73821;BME280;62150;43.582;1.456;2023-02-22T09:18:12;100231.00;;;15.32;100.00
73821;BME280;62150;43.582;1.456;2023-02-22T09:20:43;100241.34;;;15.48;100.00
73821;BME280;62150;43.582;1.456;2023-02-22T09:23:10;100229.25;;;15.93;100.00
73821;BME280;62150;43.582;1.456;2023-02-22T09:25:39;100233.03;;;15.87;100.00
73821;BME280;62150;43.582;1.456;2023-02-22T09:28:07;100231.19;;;16.18;100.00
73821;BME280;62150;43.582;1.456;2023-02-22T09:30:35;100229.88;;;16.25;100.00
73821;BME280;62150;43.582;1.456;2023-02-22T09:33:06;100235.13;;;15.81;100.00
73821;BME280;62150;43.582;1.456;2023-02-22T09:35:36;100222.84;;;16.13;100.00
73821;BME280;62150;43.582;1.456;2023-02-22T09:38:08;100233.66;;;16.05;100.00
73821;BME280;62150;43.582;1.456;2023-02-22T09:40:39;100237.72;;;15.51;100.00
73821;BME280;62150;43.582;1.456;2023-02-22T09:43:23;100229.69;;;15.99;100.00
73821;BME280;62150;43.582;1.456;2023-02-22T09:46:17;100226.03;;;15.59;100.00
73821;BME280;62150;43.582;1.456;2023-02-22T09:48:58;100225.50;;;15.83;100.00
73821;BME280;62150;43.582;1.456;2023-02-22T09:51:32;100222.56;;;15.89;100.00
73821;BME280;62150;43.582;1.456;2023-02-22T09:54:03;100227.81;;;16.44;100.00
73821;BME280;62150;43.582;1.456;2023-02-22T09:56:35;100228.47;;;15.47;100.00
73821;BME280;62150;43.582;1.456;2023-02-22T09:59:06;100226.44;;;15.96;100.00
73821;BME280;62150;43.582;1.456;2023-02-22T10:01:40;100228.38;;;16.06;100.00
73821;BME280;62150;43.582;1.456;2023-02-22T10:04:21;100235.41;;;16.33;100.00
73821;BME280;62150;43.582;1.456;2023-02-22T10:07:00;100232.72;;;15.48;100.00
73821;BME280;62150;43.582;1.456;2023-02-22T10:09:34;100231.06;;;15.77;100.00
73821;BME280;62150;43.582;1.456;2023-02-22T10:12:07;100231.88;;;15.77;100.00
73821;BME280;62150;43.582;1.456;2023-02-22T10:14:48;100237.72;;;15.95;100.00
73821;BME280;62150;43.582;1.456;2023-02-22T10:17:29;100232.56;;;16.09;100.00
73821;BME280;62150;43.582;1.456;2023-02-22T10:20:13;100222.03;;;16.67;100.00
73821;BME280;62150;43.582;1.456;2023-02-22T10:23:01;100221.75;;;16.72;100.00
73821;BME280;62150;43.582;1.456;2023-02-22T10:25:35;100224.34;;;16.99;100.00
73821;BME280;62150;43.582;1.456;2023-02-22T10:28:11;100220.50;;;16.92;100.00
73821;BME280;62150;43.582;1.456;2023-02-22T10:30:42;100222.88;;;17.22;100.00
73821;BME280;62150;43.582;1.456;2023-02-22T10:33:17;100225.25;;;17.12;100.00
73821;BME280;62150;43.582;1.456;2023-02-22T10:35:48;100225.72;;;17.04;100.00
73821;BME280;62150;43.582;1.456;2023-02-22T10:38:19;100210.13;;;17.31;100.00
73821;BME280;62150;43.582;1.456;2023-02-22T10:40:52;100221.31;;;17.19;100.00
73821;BME280;62150;43.582;1.456;2023-02-22T10:43:22;100220.22;;;17.49;100.00
73821;BME280;62150;43.582;1.456;2023-02-22T10:45:53;100219.47;;;17.21;100.00
73821;BME280;62150;43.582;1.456;2023-02-22T10:48:23;100212.38;;;17.63;100.00
73821;BME280;62150;43.582;1.456;2023-02-22T10:50:56;100208.22;;;17.73;100.00
73821;BME280;62150;43.582;1.456;2023-02-22T10:53:27;100196.03;;;18.12;100.00
73821;BME280;62150;43.582;1.456;2023-02-22T10:56:06;100216.81;;;17.48;100.00
73821;BME280;62150;43.582;1.456;2023-02-22T10:58:43;100206.88;;;17.80;100.00
73821;BME280;62150;43.582;1.456;2023-02-22T11:01:21;100209.66;;;18.02;100.00
73821;BME280;62150;43.582;1.456;2023-02-22T11:04:00;100215.06;;;18.12;100.00
73821;BME280;62150;43.582;1.456;2023-02-22T11:06:31;100214.63;;;17.55;100.00
73821;BME280;62150;43.582;1.456;2023-02-22T11:09:11;100218.78;;;17.05;100.00
73821;BME280;62150;43.582;1.456;2023-02-22T11:11:41;100210.94;;;16.65;100.00
73821;BME280;62150;43.582;1.456;2023-02-22T11:14:09;100216.16;;;17.45;100.00
73821;BME280;62150;43.582;1.456;2023-02-22T11:16:39;100208.94;;;17.62;100.00
73821;BME280;62150;43.582;1.456;2023-02-22T11:19:16;100218.72;;;17.19;100.00
73821;BME280;62150;43.582;1.456;2023-02-22T11:21:57;100217.41;;;16.72;100.00
73821;BME280;62150;43.582;1.456;2023-02-22T11:24:26;100214.69;;;17.01;100.00
73821;BME280;62150;43.582;1.456;2023-02-22T11:26:58;100209.44;;;16.75;100.00
73821;BME280;62150;43.582;1.456;2023-02-22T11:29:30;100202.47;;;17.03;100.00
73821;BME280;62150;43.582;1.456;2023-02-22T11:32:00;100205.75;;;16.65;100.00
73821;BME280;62150;43.582;1.456;2023-02-22T11:34:32;100195.44;;;17.95;100.00
73821;BME280;62150;43.582;1.456;2023-02-22T11:37:25;100195.13;;;17.74;100.00
73821;BME280;62150;43.582;1.456;2023-02-22T11:40:12;100196.28;;;17.96;100.00
73821;BME280;62150;43.582;1.456;2023-02-22T11:42:42;100181.28;;;18.49;100.00
73821;BME280;62150;43.582;1.456;2023-02-22T11:45:13;100175.66;;;18.79;100.00
73821;BME280;62150;43.582;1.456;2023-02-22T11:47:51;100172.72;;;18.59;100.00
73821;BME280;62150;43.582;1.456;2023-02-22T11:50:32;100172.91;;;18.32;100.00
73821;BME280;62150;43.582;1.456;2023-02-22T11:53:18;100166.16;;;18.66;100.00
73821;BME280;62150;43.582;1.456;2023-02-22T11:58:42;100161.69;;;18.56;100.00
73821;BME280;62150;43.582;1.456;2023-02-22T12:01:20;100161.19;;;18.51;100.00
73821;BME280;62150;43.582;1.456;2023-02-22T12:07:15;100148.69;;;18.80;100.00
73821;BME280;62150;43.582;1.456;2023-02-22T12:09:49;100146.44;;;19.10;100.00
73821;BME280;62150;43.582;1.456;2023-02-22T12:12:25;100142.56;;;19.62;100.00
73821;BME280;62150;43.582;1.456;2023-02-22T12:15:02;100151.00;;;18.48;100.00
73821;BME280;62150;43.582;1.456;2023-02-22T12:17:43;100141.72;;;19.15;100.00
73821;BME280;62150;43.582;1.456;2023-02-22T12:20:17;100140.03;;;18.55;100.00
73821;BME280;62150;43.582;1.456;2023-02-22T12:23:01;100135.16;;;19.33;100.00
73821;BME280;62150;43.582;1.456;2023-02-22T12:25:36;100136.47;;;18.93;100.00
73821;BME280;62150;43.582;1.456;2023-02-22T12:28:20;100136.22;;;18.96;100.00
73821;BME280;62150;43.582;1.456;2023-02-22T12:30:55;100130.50;;;18.19;100.00
73821;BME280;62150;43.582;1.456;2023-02-22T12:33:30;100125.69;;;18.62;100.00
73821;BME280;62150;43.582;1.456;2023-02-22T12:36:03;100117.81;;;18.75;100.00
73821;BME280;62150;43.582;1.456;2023-02-22T12:38:35;100112.34;;;19.13;100.00
73821;BME280;62150;43.582;1.456;2023-02-22T12:41:10;100118.50;;;18.66;100.00
73821;BME280;62150;43.582;1.456;2023-02-22T12:43:43;100110.75;;;18.88;100.00
73821;BME280;62150;43.582;1.456;2023-02-22T12:46:16;100116.47;;;18.46;100.00
73821;BME280;62150;43.582;1.456;2023-02-22T12:48:54;100104.16;;;18.60;100.00
73821;BME280;62150;43.582;1.456;2023-02-22T12:51:28;100112.16;;;18.57;100.00
73821;BME280;62150;43.582;1.456;2023-02-22T12:54:04;100101.09;;;19.01;100.00
73821;BME280;62150;43.582;1.456;2023-02-22T12:56:38;100100.47;;;18.87;100.00
73821;BME280;62150;43.582;1.456;2023-02-22T12:59:13;100098.28;;;18.69;100.00
73821;BME280;62150;43.582;1.456;2023-02-22T13:01:49;100094.81;;;18.21;100.00
73821;BME280;62150;43.582;1.456;2023-02-22T13:04:17;100088.16;;;18.89;100.00
73821;BME280;62150;43.582;1.456;2023-02-22T13:06:54;100093.59;;;18.86;100.00
73821;BME280;62150;43.582;1.456;2023-02-22T13:09:44;100087.88;;;18.69;100.00
73821;BME280;62150;43.582;1.456;2023-02-22T13:12:18;100090.66;;;17.82;100.00
73821;BME280;62150;43.582;1.456;2023-02-22T13:14:57;100086.56;;;18.51;100.00
73821;BME280;62150;43.582;1.456;2023-02-22T13:17:34;100084.59;;;17.94;100.00
73821;BME280;62150;43.582;1.456;2023-02-22T13:20:11;100085.53;;;18.54;100.00
73821;BME280;62150;43.582;1.456;2023-02-22T13:22:44;100086.72;;;18.13;100.00
73821;BME280;62150;43.582;1.456;2023-02-22T13:25:18;100077.63;;;18.31;100.00
73821;BME280;62150;43.582;1.456;2023-02-22T13:27:51;100077.59;;;18.55;100.00
73821;BME280;62150;43.582;1.456;2023-02-22T13:30:26;100077.19;;;18.61;100.00
73821;BME280;62150;43.582;1.456;2023-02-22T13:36:09;100069.06;;;18.77;100.00
73821;BME280;62150;43.582;1.456;2023-02-22T13:41:54;100059.81;;;19.41;100.00
73821;BME280;62150;43.582;1.456;2023-02-22T13:47:43;100055.72;;;18.58;100.00
73821;BME280;62150;43.582;1.456;2023-02-22T13:50:32;100052.72;;;19.21;100.00
73821;BME280;62150;43.582;1.456;2023-02-22T13:53:09;100054.69;;;18.95;100.00
73821;BME280;62150;43.582;1.456;2023-02-22T13:55:40;100065.16;;;18.24;100.00
73821;BME280;62150;43.582;1.456;2023-02-22T13:58:11;100047.00;;;18.94;100.00
73821;BME280;62150;43.582;1.456;2023-02-22T14:00:45;100056.41;;;18.72;100.00
73821;BME280;62150;43.582;1.456;2023-02-22T14:03:32;100043.81;;;19.13;100.00
73821;BME280;62150;43.582;1.456;2023-02-22T14:06:07;100046.44;;;19.01;100.00
73821;BME280;62150;43.582;1.456;2023-02-22T14:08:41;100044.41;;;19.16;100.00
73821;BME280;62150;43.582;1.456;2023-02-22T14:14:22;100039.94;;;19.18;100.00
73821;BME280;62150;43.582;1.456;2023-02-22T14:17:19;100037.47;;;19.39;100.00
73821;BME280;62150;43.582;1.456;2023-02-22T14:20:02;100036.28;;;19.54;100.00
73821;BME280;62150;43.582;1.456;2023-02-22T14:22:30;100038.41;;;19.38;100.00
73821;BME280;62150;43.582;1.456;2023-02-22T14:24:58;100031.78;;;19.34;100.00
73821;BME280;62150;43.582;1.456;2023-02-22T14:27:38;100030.84;;;19.35;100.00
73821;BME280;62150;43.582;1.456;2023-02-22T14:30:20;100029.75;;;19.26;100.00
73821;BME280;62150;43.582;1.456;2023-02-22T14:32:52;100031.88;;;19.21;100.00
73821;BME280;62150;43.582;1.456;2023-02-22T14:35:20;100035.06;;;19.02;100.00
73821;BME280;62150;43.582;1.456;2023-02-22T14:37:53;100027.91;;;18.71;100.00
73821;BME280;62150;43.582;1.456;2023-02-22T14:40:24;100030.59;;;19.27;100.00
73821;BME280;62150;43.582;1.456;2023-02-22T14:42:59;100026.53;;;19.45;100.00
73821;BME280;62150;43.582;1.456;2023-02-22T14:45:30;100020.91;;;19.51;100.00
73821;BME280;62150;43.582;1.456;2023-02-22T14:48:05;100022.66;;;19.62;100.00
73821;BME280;62150;43.582;1.456;2023-02-22T14:50:43;100024.94;;;20.10;100.00
73821;BME280;62150;43.582;1.456;2023-02-22T14:53:22;100015.69;;;19.62;100.00
73821;BME280;62150;43.582;1.456;2023-02-22T14:55:53;100019.06;;;19.85;100.00
73821;BME280;62150;43.582;1.456;2023-02-22T14:58:28;100016.66;;;20.04;100.00
73821;BME280;62150;43.582;1.456;2023-02-22T15:00:56;100020.47;;;19.89;100.00
73821;BME280;62150;43.582;1.456;2023-02-22T15:03:29;100011.47;;;19.93;100.00
73821;BME280;62150;43.582;1.456;2023-02-22T15:06:04;100011.03;;;19.43;100.00
73821;BME280;62150;43.582;1.456;2023-02-22T15:08:32;100009.13;;;19.79;100.00
73821;BME280;62150;43.582;1.456;2023-02-22T15:11:19;100010.78;;;19.13;100.00
73821;BME280;62150;43.582;1.456;2023-02-22T15:13:49;100002.50;;;19.41;100.00
73821;BME280;62150;43.582;1.456;2023-02-22T15:16:17;100004.97;;;18.87;100.00
73821;BME280;62150;43.582;1.456;2023-02-22T15:18:51;100005.34;;;19.16;100.00
73821;BME280;62150;43.582;1.456;2023-02-22T15:21:22;100005.09;;;19.08;100.00
73821;BME280;62150;43.582;1.456;2023-02-22T15:23:51;100008.91;;;19.26;100.00
73821;BME280;62150;43.582;1.456;2023-02-22T15:26:23;100009.84;;;18.92;100.00
73821;BME280;62150;43.582;1.456;2023-02-22T15:28:56;100006.19;;;19.17;100.00
73821;BME280;62150;43.582;1.456;2023-02-22T15:31:28;100000.94;;;18.83;100.00
73821;BME280;62150;43.582;1.456;2023-02-22T15:34:09;100000.78;;;18.73;100.00
73821;BME280;62150;43.582;1.456;2023-02-22T15:36:44;100002.97;;;18.91;100.00
73821;BME280;62150;43.582;1.456;2023-02-22T15:39:19;100000.00;;;18.84;100.00
73821;BME280;62150;43.582;1.456;2023-02-22T15:42:04;100002.63;;;19.06;100.00
73821;BME280;62150;43.582;1.456;2023-02-22T15:44:37;100009.31;;;18.75;100.00
73821;BME280;62150;43.582;1.456;2023-02-22T15:47:06;100006.59;;;18.77;100.00
73821;BME280;62150;43.582;1.456;2023-02-22T15:49:35;100008.91;;;18.93;100.00
73821;BME280;62150;43.582;1.456;2023-02-22T15:52:09;100002.50;;;18.97;100.00
73821;BME280;62150;43.582;1.456;2023-02-22T15:54:48;99998.50;;;19.04;100.00
73821;BME280;62150;43.582;1.456;2023-02-22T15:57:17;100009.09;;;18.79;100.00
73821;BME280;62150;43.582;1.456;2023-02-22T15:59:49;100003.44;;;19.07;100.00
73821;BME280;62150;43.582;1.456;2023-02-22T16:02:30;100004.78;;;19.01;100.00
73821;BME280;62150;43.582;1.456;2023-02-22T16:05:06;100006.44;;;19.25;100.00
73821;BME280;62150;43.582;1.456;2023-02-22T16:07:37;100019.53;;;18.55;100.00
73821;BME280;62150;43.582;1.456;2023-02-22T16:10:31;100027.66;;;17.91;100.00
73821;BME280;62150;43.582;1.456;2023-02-22T16:13:07;100030.91;;;18.30;100.00
73821;BME280;62150;43.582;1.456;2023-02-22T16:15:35;100028.31;;;18.30;100.00
73821;BME280;62150;43.582;1.456;2023-02-22T16:18:27;100031.50;;;17.86;100.00
73821;BME280;62150;43.582;1.456;2023-02-22T16:21:07;100019.78;;;18.28;100.00
73821;BME280;62150;43.582;1.456;2023-02-22T16:23:45;100021.44;;;18.05;100.00
73821;BME280;62150;43.582;1.456;2023-02-22T16:26:22;100019.69;;;17.69;100.00
73821;BME280;62150;43.582;1.456;2023-02-22T16:28:51;100018.31;;;17.76;100.00
73821;BME280;62150;43.582;1.456;2023-02-22T16:31:20;100020.66;;;18.16;100.00
73821;BME280;62150;43.582;1.456;2023-02-22T16:33:50;100016.75;;;17.24;100.00
73821;BME280;62150;43.582;1.456;2023-02-22T16:36:22;100009.00;;;17.61;100.00
73821;BME280;62150;43.582;1.456;2023-02-22T16:38:51;100010.47;;;18.60;100.00
73821;BME280;62150;43.582;1.456;2023-02-22T16:41:18;100011.50;;;17.37;100.00
73821;BME280;62150;43.582;1.456;2023-02-22T16:43:47;100010.31;;;18.03;100.00
73821;BME280;62150;43.582;1.456;2023-02-22T16:46:17;100007.50;;;17.82;100.00
73821;BME280;62150;43.582;1.456;2023-02-22T16:48:45;100006.59;;;18.66;100.00
73821;BME280;62150;43.582;1.456;2023-02-22T16:51:22;100007.91;;;18.36;100.00
73821;BME280;62150;43.582;1.456;2023-02-22T16:53:52;100006.19;;;18.59;100.00
73821;BME280;62150;43.582;1.456;2023-02-22T16:56:24;100004.25;;;18.50;100.00
73821;BME280;62150;43.582;1.456;2023-02-22T16:58:53;100005.22;;;18.95;100.00
73821;BME280;62150;43.582;1.456;2023-02-22T17:01:21;100001.16;;;18.69;100.00
73821;BME280;62150;43.582;1.456;2023-02-22T17:03:50;100000.13;;;18.83;100.00
73821;BME280;62150;43.582;1.456;2023-02-22T17:06:19;100007.13;;;18.93;100.00
73821;BME280;62150;43.582;1.456;2023-02-22T17:08:48;99999.88;;;18.86;100.00
73821;BME280;62150;43.582;1.456;2023-02-22T17:11:17;99999.53;;;18.90;100.00
73821;BME280;62150;43.582;1.456;2023-02-22T17:13:45;100005.47;;;18.57;100.00
73821;BME280;62150;43.582;1.456;2023-02-22T17:16:16;100010.44;;;18.25;100.00
73821;BME280;62150;43.582;1.456;2023-02-22T17:18:44;100006.97;;;18.49;100.00
73821;BME280;62150;43.582;1.456;2023-02-22T17:21:12;100008.78;;;18.24;100.00
73821;BME280;62150;43.582;1.456;2023-02-22T17:23:41;100007.81;;;18.49;100.00
73821;BME280;62150;43.582;1.456;2023-02-22T17:26:13;100003.53;;;18.48;100.00
73821;BME280;62150;43.582;1.456;2023-02-22T17:28:41;100006.41;;;18.56;100.00
73821;BME280;62150;43.582;1.456;2023-02-22T17:31:17;100009.69;;;18.82;100.00
73821;BME280;62150;43.582;1.456;2023-02-22T17:33:45;100013.59;;;18.18;100.00
73821;BME280;62150;43.582;1.456;2023-02-22T17:36:13;100021.00;;;17.87;100.00
73821;BME280;62150;43.582;1.456;2023-02-22T17:38:41;100022.69;;;17.75;100.00
73821;BME280;62150;43.582;1.456;2023-02-22T17:41:08;100014.34;;;17.83;100.00
73821;BME280;62150;43.582;1.456;2023-02-22T17:43:37;100014.97;;;18.11;100.00
73821;BME280;62150;43.582;1.456;2023-02-22T17:46:06;100017.69;;;17.85;100.00
73821;BME280;62150;43.582;1.456;2023-02-22T17:48:34;100006.94;;;18.37;100.00
73821;BME280;62150;43.582;1.456;2023-02-22T17:51:05;100016.88;;;18.32;100.00
73821;BME280;62150;43.582;1.456;2023-02-22T17:53:34;100011.69;;;17.72;100.00
73821;BME280;62150;43.582;1.456;2023-02-22T17:56:05;100019.09;;;18.37;100.00
73821;BME280;62150;43.582;1.456;2023-02-22T17:58:33;100013.44;;;18.32;100.00
73821;BME280;62150;43.582;1.456;2023-02-22T18:01:02;100016.09;;;18.54;100.00
73821;BME280;62150;43.582;1.456;2023-02-22T18:03:29;100013.00;;;18.49;100.00
73821;BME280;62150;43.582;1.456;2023-02-22T18:05:58;100020.59;;;18.52;100.00
73821;BME280;62150;43.582;1.456;2023-02-22T18:08:28;100020.31;;;18.44;100.00
73821;BME280;62150;43.582;1.456;2023-02-22T18:11:02;100020.97;;;18.24;100.00
73821;BME280;62150;43.582;1.456;2023-02-22T18:13:31;100025.34;;;17.99;100.00
73821;BME280;62150;43.582;1.456;2023-02-22T18:15:59;100022.69;;;17.75;100.00
73821;BME280;62150;43.582;1.456;2023-02-22T18:18:31;100034.19;;;18.21;100.00
73821;BME280;62150;43.582;1.456;2023-02-22T18:20:59;100031.97;;;17.54;100.00
73821;BME280;62150;43.582;1.456;2023-02-22T18:23:27;100039.38;;;17.22;100.00
73821;BME280;62150;43.582;1.456;2023-02-22T18:25:56;100036.22;;;16.79;100.00
73821;BME280;62150;43.582;1.456;2023-02-22T18:28:24;100036.34;;;17.66;100.00
73821;BME280;62150;43.582;1.456;2023-02-22T18:30:52;100025.56;;;17.84;100.00
73821;BME280;62150;43.582;1.456;2023-02-22T18:33:19;100031.66;;;17.59;100.00
73821;BME280;62150;43.582;1.456;2023-02-22T18:35:49;100033.13;;;16.99;100.00
73821;BME280;62150;43.582;1.456;2023-02-22T18:38:18;100040.66;;;17.79;100.00
73821;BME280;62150;43.582;1.456;2023-02-22T18:40:57;100031.88;;;17.43;100.00
73821;BME280;62150;43.582;1.456;2023-02-22T18:43:24;100031.53;;;17.73;100.00
73821;BME280;62150;43.582;1.456;2023-02-22T18:45:52;100024.25;;;17.78;100.00
73821;BME280;62150;43.582;1.456;2023-02-22T18:48:19;100022.47;;;17.79;100.00
73821;BME280;62150;43.582;1.456;2023-02-22T18:50:48;100020.75;;;18.27;100.00
73821;BME280;62150;43.582;1.456;2023-02-22T18:53:16;100013.16;;;18.59;100.00
73821;BME280;62150;43.582;1.456;2023-02-22T18:55:43;100015.56;;;18.38;100.00
73821;BME280;62150;43.582;1.456;2023-02-22T18:58:11;100019.31;;;18.58;100.00
73821;BME280;62150;43.582;1.456;2023-02-22T19:00:38;100015.28;;;18.54;100.00
73821;BME280;62150;43.582;1.456;2023-02-22T19:03:06;100015.41;;;17.81;100.00
73821;BME280;62150;43.582;1.456;2023-02-22T19:05:35;100011.97;;;17.18;100.00
73821;BME280;62150;43.582;1.456;2023-02-22T19:08:04;100021.69;;;17.53;100.00
73821;BME280;62150;43.582;1.456;2023-02-22T19:10:36;100012.91;;;17.79;100.00
73821;BME280;62150;43.582;1.456;2023-02-22T19:13:04;100011.06;;;17.56;100.00
73821;BME280;62150;43.582;1.456;2023-02-22T19:15:38;100019.13;;;17.15;100.00
73821;BME280;62150;43.582;1.456;2023-02-22T19:18:05;100020.75;;;16.78;100.00
73821;BME280;62150;43.582;1.456;2023-02-22T19:20:33;100014.34;;;17.21;100.00
73821;BME280;62150;43.582;1.456;2023-02-22T19:23:05;100004.47;;;17.26;100.00
73821;BME280;62150;43.582;1.456;2023-02-22T19:25:37;100000.22;;;17.25;100.00
73821;BME280;62150;43.582;1.456;2023-02-22T19:28:06;100011.84;;;17.07;100.00
73821;BME280;62150;43.582;1.456;2023-02-22T19:30:34;100010.47;;;17.39;100.00
73821;BME280;62150;43.582;1.456;2023-02-22T19:33:01;100014.44;;;17.07;100.00
73821;BME280;62150;43.582;1.456;2023-02-22T19:35:30;100011.44;;;17.00;100.00
73821;BME280;62150;43.582;1.456;2023-02-22T19:37:57;100017.31;;;16.64;100.00
73821;BME280;62150;43.582;1.456;2023-02-22T19:40:27;100016.31;;;16.80;100.00
73821;BME280;62150;43.582;1.456;2023-02-22T19:42:55;100013.09;;;16.09;100.00
73821;BME280;62150;43.582;1.456;2023-02-22T19:45:24;100017.81;;;16.30;100.00
73821;BME280;62150;43.582;1.456;2023-02-22T19:47:53;100021.41;;;15.88;100.00
73821;BME280;62150;43.582;1.456;2023-02-22T19:50:22;100020.78;;;15.70;100.00
73821;BME280;62150;43.582;1.456;2023-02-22T19:52:49;100016.28;;;16.27;100.00
73821;BME280;62150;43.582;1.456;2023-02-22T19:55:18;100018.63;;;15.91;100.00
73821;BME280;62150;43.582;1.456;2023-02-22T19:57:47;100029.41;;;15.97;100.00
73821;BME280;62150;43.582;1.456;2023-02-22T20:00:16;100022.16;;;16.17;100.00
73821;BME280;62150;43.582;1.456;2023-02-22T20:02:55;100021.06;;;15.80;100.00
73821;BME280;62150;43.582;1.456;2023-02-22T20:05:23;100012.31;;;15.95;100.00
73821;BME280;62150;43.582;1.456;2023-02-22T20:07:51;100010.25;;;16.66;100.00
73821;BME280;62150;43.582;1.456;2023-02-22T20:10:19;100009.56;;;16.37;100.00
73821;BME280;62150;43.582;1.456;2023-02-22T20:12:51;100012.31;;;16.22;100.00
73821;BME280;62150;43.582;1.456;2023-02-22T20:15:19;100008.63;;;16.78;100.00
73821;BME280;62150;43.582;1.456;2023-02-22T20:17:48;100008.38;;;15.89;100.00
73821;BME280;62150;43.582;1.456;2023-02-22T20:20:17;100001.91;;;16.09;100.00